Time;durP1;ratioP1;P1;durP2;ratioP2;P2;SDS_P1;SDS_P2;PMS_P1;PMS_P2;Temp;Humidity;BMP_temperature;BMP_pressure;BME280_temperature;BME280_humidity;BME280_pressure;Samples;Min_cycle;Max_cycle;Signal;HPM_P1;HPM_P2
2021/04/16 00:02:07;;;;;;;4.30;3.47;;;;;;;1.86;63.31;97463.34;4974490;28;20207;-65
2021/04/16 00:04:32;;;;;;;3.40;3.10;;;;;;;1.79;63.31;97466.69;4975553;28;20260;-65
2021/04/16 00:06:58;;;;;;;3.77;3.37;;;;;;;1.71;64.29;97459.75;4974784;28;20196;-65
2021/04/16 00:09:25;;;;;;;4.27;3.63;;;;;;;1.70;64.13;97462.47;4975575;28;20280;-65
2021/04/16 00:11:50;;;;;;;4.07;3.33;;;;;;;1.67;63.78;97448.88;4975324;28;20218;-65
2021/04/16 00:14:17;;;;;;;6.27;3.47;;;;;;;1.63;64.53;97457.09;4974036;28;20184;-65
2021/04/16 00:16:42;;;;;;;3.80;3.40;;;;;;;1.56;64.50;97445.78;4975772;28;20239;-65
2021/04/16 00:19:09;;;;;;;3.30;3.00;;;;;;;1.54;64.52;97445.94;4974707;28;20716;-65
2021/04/16 00:21:34;;;;;;;4.03;3.10;;;;;;;1.58;64.54;97444.66;4975100;28;20272;-65
2021/04/16 00:24:00;;;;;;;3.47;2.97;;;;;;;1.58;65.17;97444.66;4974561;28;20320;-65
2021/04/16 00:26:25;;;;;;;3.57;3.20;;;;;;;1.53;64.92;97443.50;4974722;28;20789;-65
2021/04/16 00:28:51;;;;;;;3.60;3.30;;;;;;;1.51;65.46;97441.06;4975286;28;20605;-65
2021/04/16 00:31:25;;;;;;;3.73;3.27;;;;;;;1.39;66.01;97437.16;4973909;28;20283;-65
2021/04/16 00:33:52;;;;;;;3.93;3.23;;;;;;;1.38;65.91;97432.94;4975202;28;20180;-65
2021/04/16 00:36:18;;;;;;;3.40;3.10;;;;;;;1.43;65.89;97430.69;4972561;28;20185;-65
2021/04/16 00:38:45;;;;;;;5.10;3.43;;;;;;;1.37;66.43;97428.72;4974840;28;20185;-65
2021/04/16 00:41:15;;;;;;;4.10;3.03;;;;;;;1.40;66.30;97430.19;4974094;28;20181;-65
2021/04/16 00:43:41;;;;;;;3.50;3.20;;;;;;;1.37;66.37;97428.72;4957918;28;20642;-64
2021/04/16 00:46:12;;;;;;;4.60;3.03;;;;;;;1.35;66.62;97424.66;4956785;28;20192;-65
2021/04/16 00:48:46;;;;;;;3.20;3.00;;;;;;;1.26;67.15;97423.81;4974582;28;20195;-65
2021/04/16 00:51:40;;;;;;;3.40;3.10;;;;;;;1.25;67.20;97428.19;4973617;28;20211;-65
2021/04/16 00:54:11;;;;;;;3.80;3.30;;;;;;;1.23;66.86;97417.19;4971153;28;20307;-65
2021/04/16 00:56:36;;;;;;;3.60;3.27;;;;;;;1.14;67.17;97414.72;4973699;28;20237;-65
2021/04/16 00:59:03;;;;;;;3.50;3.20;;;;;;;1.12;67.31;97417.44;4973742;28;20664;-66
2021/04/16 01:01:29;;;;;;;4.97;3.40;;;;;;;1.14;67.63;97407.78;4974921;28;20196;-65
2021/04/16 01:03:55;;;;;;;4.90;3.37;;;;;;;1.07;68.10;97403.38;4974498;28;20188;-65
2021/04/16 01:06:22;;;;;;;3.37;2.93;;;;;;;1.07;68.23;97408.53;4973610;28;20657;-65
2021/04/16 01:08:47;;;;;;;4.20;3.60;;;;;;;0.99;68.29;97405.91;4974105;28;20601;-65
2021/04/16 01:11:13;;;;;;;5.10;3.50;;;;;;;0.96;68.71;97404.44;4973730;28;20296;-65
2021/04/16 01:13:39;;;;;;;3.57;3.27;;;;;;;0.88;68.80;97406.16;4974130;28;20185;-65
2021/04/16 01:16:09;;;;;;;5.27;3.27;;;;;;;0.77;69.17;97402.06;4956282;28;20184;-65
2021/04/16 01:18:39;;;;;;;4.80;3.37;;;;;;;0.75;69.69;97409.13;4974009;28;20180;-65
2021/04/16 01:21:14;;;;;;;3.57;3.13;;;;;;;0.74;69.57;97410.88;4973105;28;20187;-65
2021/04/16 01:23:58;;;;;;;5.03;3.43;;;;;;;0.74;69.71;97397.19;4956698;28;20188;-65
2021/04/16 01:26:34;;;;;;;3.60;3.30;;;;;;;0.66;69.63;97404.88;4956354;28;20198;-65
2021/04/16 01:28:59;;;;;;;6.53;3.87;;;;;;;0.77;70.25;97400.28;4973271;28;20251;-65
2021/04/16 01:31:27;;;;;;;3.47;3.00;;;;;;;0.72;69.98;97406.84;4956683;28;20257;-65
2021/04/16 01:33:53;;;;;;;3.80;3.40;;;;;;;0.81;70.07;97406.75;4973749;28;20278;-65
2021/04/16 01:36:28;;;;;;;3.60;3.30;;;;;;;0.79;69.59;97402.69;4972558;28;20220;-65
2021/04/16 01:38:55;;;;;;;9.30;3.47;;;;;;;0.61;70.35;97410.47;4973363;28;20195;-65
2021/04/16 01:41:22;;;;;;;3.97;3.47;;;;;;;0.64;70.77;97407.59;4973193;28;20271;-65
2021/04/16 01:44:16;;;;;;;3.90;3.50;;;;;;;0.68;70.27;97401.16;4956580;28;20195;-65
2021/04/16 01:46:58;;;;;;;3.63;3.20;;;;;;;0.66;70.88;97405.69;4954348;28;20568;-65
2021/04/16 01:49:38;;;;;;;3.63;3.33;;;;;;;0.69;70.67;97401.97;4958294;28;20203;-65
2021/04/16 01:52:06;;;;;;;4.13;3.43;;;;;;;0.57;71.08;97398.81;4972607;28;20215;-65
2021/04/16 01:54:36;;;;;;;5.83;3.53;;;;;;;0.51;71.33;97394.25;4955494;28;20189;-65
2021/04/16 01:57:08;;;;;;;4.00;3.70;;;;;;;0.54;71.59;97399.13;4972628;28;20200;-66
2021/04/16 01:59:36;;;;;;;4.67;3.80;;;;;;;0.45;72.00;97394.06;4956335;28;20228;-66
2021/04/16 02:02:04;;;;;;;4.73;3.50;;;;;;;0.54;71.68;97388.00;4972613;28;20212;-66
2021/04/16 02:04:30;;;;;;;4.27;3.60;;;;;;;0.37;72.72;97381.91;4973413;28;20197;-66
2021/04/16 02:06:55;;;;;;;3.90;3.50;;;;;;;0.46;71.95;97385.34;4956379;28;20188;-66
2021/04/16 02:09:24;;;;;;;3.63;3.20;;;;;;;0.38;71.98;97383.53;4972218;28;21014;-66
2021/04/16 02:11:51;;;;;;;3.97;3.57;;;;;;;0.32;72.09;97382.34;4973284;28;20196;-66
2021/04/16 02:14:20;;;;;;;4.93;3.30;;;;;;;0.52;71.56;97384.75;4972294;28;20200;-66
2021/04/16 02:16:48;;;;;;;3.90;3.50;;;;;;;0.59;71.27;97385.78;4973018;28;20207;-66
2021/04/16 02:19:14;;;;;;;6.83;3.40;;;;;;;0.66;71.07;97374.72;4972435;28;20208;-66
2021/04/16 02:21:40;;;;;;;3.60;3.30;;;;;;;0.65;70.84;97378.25;4973202;28;20645;-65
2021/04/16 02:24:07;;;;;;;5.57;3.53;;;;;;;0.63;71.06;97372.44;4972178;28;20184;-66
2021/04/16 02:26:33;;;;;;;4.03;3.47;;;;;;;0.59;71.16;97371.13;4972986;28;20188;-65
2021/04/16 02:28:58;;;;;;;4.47;3.87;;;;;;;0.56;71.25;97368.81;4972643;28;20185;-66
2021/04/16 02:31:24;;;;;;;4.00;3.27;;;;;;;0.52;71.74;97371.84;4972257;28;20259;-65
2021/04/16 02:33:49;;;;;;;3.53;3.10;;;;;;;0.43;71.92;97375.34;4972974;28;20197;-65
2021/04/16 02:36:15;;;;;;;4.13;3.50;;;;;;;0.44;72.19;97375.19;4971190;28;20176;-66
2021/04/16 02:38:40;;;;;;;3.87;3.47;;;;;;;0.48;71.70;97381.66;4972911;28;20181;-66
2021/04/16 02:41:06;;;;;;;4.37;3.80;;;;;;;0.41;72.65;97373.72;4972130;28;20185;-66
2021/04/16 02:43:32;;;;;;;3.93;3.03;;;;;;;0.35;72.69;97374.31;4955730;28;20195;-65
2021/04/16 02:45:59;;;;;;;3.47;3.13;;;;;;;0.48;72.54;97373.94;4972521;28;20642;-66
2021/04/16 02:48:24;;;;;;;4.93;3.70;;;;;;;0.52;72.29;97371.84;4972675;28;20277;-66
2021/04/16 02:50:50;;;;;;;4.40;3.60;;;;;;;0.31;73.44;97367.03;4955142;28;20576;-66
2021/04/16 02:53:15;;;;;;;4.77;3.50;;;;;;;0.42;72.80;97374.53;4971479;28;20207;-66
2021/04/16 02:55:41;;;;;;;4.00;3.53;;;;;;;0.26;73.34;97372.63;4972291;28;20595;-66
2021/04/16 02:58:08;;;;;;;4.30;3.43;;;;;;;0.22;73.35;97370.50;4971833;28;20211;-66
2021/04/16 03:00:34;;;;;;;3.50;3.20;;;;;;;0.13;74.12;97368.78;4955303;28;20216;-66
2021/04/16 03:02:59;;;;;;;4.47;4.07;;;;;;;-0.01;74.30;97368.34;4954957;28;20219;-66
2021/04/16 03:05:25;;;;;;;4.03;3.63;;;;;;;-0.04;74.70;97367.81;4972245;28;20192;-66
2021/04/16 03:07:52;;;;;;;7.23;3.97;;;;;;;-0.07;75.28;97362.97;4955317;28;20185;-66
2021/04/16 03:10:21;;;;;;;7.13;4.03;;;;;;;-0.09;74.85;97360.53;4971481;28;20223;-65
2021/04/16 03:12:46;;;;;;;5.20;3.90;;;;;;;-0.12;75.49;97365.97;4972210;28;20685;-66
2021/04/16 03:15:13;;;;;;;3.93;3.50;;;;;;;-0.16;75.51;97363.81;4971781;28;20245;-66
2021/04/16 03:17:38;;;;;;;4.43;3.93;;;;;;;-0.19;75.60;97361.56;4954833;28;20180;-65
2021/04/16 03:20:06;;;;;;;6.00;3.83;;;;;;;-0.18;75.59;97353.69;4971680;28;20248;-66
2021/04/16 03:22:31;;;;;;;4.33;3.90;;;;;;;-0.13;75.42;97358.41;4971709;28;20219;-66
2021/04/16 03:24:57;;;;;;;6.43;3.90;;;;;;;-0.11;75.32;97359.03;4972581;28;20192;-66
2021/04/16 03:27:23;;;;;;;3.40;3.10;;;;;;;-0.22;75.93;97351.53;4954338;28;20177;-66
2021/04/16 03:29:48;;;;;;;3.87;3.47;;;;;;;-0.19;76.55;97356.41;4972246;28;20246;-66
2021/04/16 03:32:14;;;;;;;3.93;3.53;;;;;;;-0.07;75.88;97350.91;4971398;28;20677;-66
2021/04/16 03:34:39;;;;;;;4.17;3.70;;;;;;;-0.21;75.66;97355.72;4972034;28;20207;-66
2021/04/16 03:37:05;;;;;;;3.93;3.53;;;;;;;-0.32;76.41;97353.34;4970781;28;20188;-66
2021/04/16 03:39:30;;;;;;;3.93;3.47;;;;;;;-0.20;75.91;97353.00;4955235;28;20185;-65
2021/04/16 03:41:55;;;;;;;4.10;3.70;;;;;;;-0.21;76.06;97353.16;4972500;28;20199;-65
2021/04/16 03:44:21;;;;;;;4.13;3.27;;;;;;;-0.35;76.51;97351.88;4971419;28;20203;-66
2021/04/16 03:46:46;;;;;;;3.57;3.27;;;;;;;-0.46;76.40;97352.09;4972256;28;20189;-65
2021/04/16 03:49:12;;;;;;;4.43;3.40;;;;;;;-0.51;77.03;97357.66;4970834;28;20204;-66
2021/04/16 03:51:52;;;;;;;5.63;3.90;;;;;;;-0.47;77.09;97347.88;4971849;28;20212;-66
2021/04/16 03:54:18;;;;;;;4.10;3.43;;;;;;;-0.59;77.63;97351.59;4970386;28;20578;-66
2021/04/16 03:56:43;;;;;;;5.67;3.93;;;;;;;-0.53;77.73;97358.75;4967910;28;20712;-66
2021/04/16 03:59:09;;;;;;;5.60;3.60;;;;;;;-0.57;77.69;97355.66;4970938;28;20275;-66
2021/04/16 04:01:35;;;;;;;5.20;3.83;;;;;;;-0.57;77.76;97355.66;4972211;28;20185;-66
2021/04/16 04:04:00;;;;;;;5.23;3.60;;;;;;;-0.51;78.00;97359.44;4954539;28;20572;-66
2021/04/16 04:06:25;;;;;;;4.30;3.57;;;;;;;-0.55;77.98;97350.34;4971932;28;20193;-66
2021/04/16 04:08:51;;;;;;;5.07;3.80;;;;;;;-0.57;77.68;97360.81;4972000;28;20701;-66
2021/04/16 04:11:16;;;;;;;5.30;4.20;;;;;;;-0.63;78.41;97365.72;4972207;28;20205;-66
2021/04/16 04:13:42;;;;;;;9.90;4.30;;;;;;;-0.69;79.05;97359.38;4958462;28;20183;-66
2021/04/16 04:16:07;;;;;;;5.00;3.73;;;;;;;-0.67;78.80;97362.59;4957456;28;20560;-66
2021/04/16 04:18:34;;;;;;;5.27;4.40;;;;;;;-0.68;79.27;97361.00;4975654;28;20657;-65
2021/04/16 04:20:59;;;;;;;4.40;4.00;;;;;;;-0.71;79.86;97357.88;4974775;28;20561;-66
2021/04/16 04:23:25;;;;;;;4.40;4.00;;;;;;;-0.67;79.84;97361.81;4974918;28;20192;-66
2021/04/16 04:25:50;;;;;;;5.13;4.00;;;;;;;-0.63;79.46;97363.16;4975073;28;20180;-66
2021/04/16 04:28:16;;;;;;;5.87;4.43;;;;;;;-0.62;79.94;97365.59;4974308;28;20541;-66
2021/04/16 04:30:42;;;;;;;4.53;3.90;;;;;;;-0.50;79.54;97367.00;4975214;28;20185;-66
2021/04/16 04:33:07;;;;;;;4.77;4.27;;;;;;;-0.51;79.85;97367.16;4973872;28;20625;-66
2021/04/16 04:35:33;;;;;;;5.77;4.37;;;;;;;-0.35;78.93;97359.63;4974613;28;20189;-65
2021/04/16 04:37:59;;;;;;;9.77;4.67;;;;;;;-0.48;79.93;97357.38;4975077;28;20261;-66
2021/04/16 04:40:26;;;;;;;5.83;4.60;;;;;;;-0.44;79.41;97365.59;4974500;28;20189;-67
2021/04/16 04:42:52;;;;;;;4.90;4.40;;;;;;;-0.35;79.39;97363.94;4974969;28;20215;-66
2021/04/16 04:45:19;;;;;;;4.90;4.40;;;;;;;-0.49;79.79;97362.66;4974029;28;20191;-66
2021/04/16 04:47:44;;;;;;;5.43;4.60;;;;;;;-0.51;79.83;97372.31;4975042;28;20185;-66
2021/04/16 04:50:11;;;;;;;8.37;4.90;;;;;;;-0.44;79.36;97370.75;4974361;28;20292;-66
2021/04/16 04:52:38;;;;;;;6.10;4.53;;;;;;;-0.51;80.14;97375.69;4973411;28;20240;-66
2021/04/16 04:55:18;;;;;;;5.80;4.40;;;;;;;-0.45;79.97;97374.31;4973849;28;20220;-66
2021/04/16 04:57:43;;;;;;;5.00;4.50;;;;;;;-0.44;79.94;97371.56;4957678;28;20272;-66
2021/04/16 05:00:11;;;;;;;6.20;4.53;;;;;;;-0.27;79.59;97372.56;4974017;28;20268;-65
2021/04/16 05:02:38;;;;;;;4.90;4.40;;;;;;;-0.16;78.91;97379.28;4957043;28;20235;-66
2021/04/16 05:05:04;;;;;;;6.17;4.33;;;;;;;0.06;78.25;97378.06;4973750;28;20192;-65
2021/04/16 05:07:29;;;;;;;4.77;3.97;;;;;;;0.24;77.72;97381.44;4974603;28;20203;-65
2021/04/16 05:09:55;;;;;;;5.77;4.27;;;;;;;0.33;77.16;97376.25;4957339;28;20663;-66
2021/04/16 05:12:20;;;;;;;4.93;4.03;;;;;;;0.35;77.56;97376.88;4973544;28;20204;-66
2021/04/16 05:14:46;;;;;;;7.07;4.00;;;;;;;0.40;77.26;97373.84;4957169;28;20219;-66
2021/04/16 05:17:11;;;;;;;3.97;3.57;;;;;;;0.69;76.13;97373.59;4956687;28;20175;-66
2021/04/16 05:19:37;;;;;;;3.60;3.30;;;;;;;0.61;75.33;97371.78;4974702;28;20191;-64
2021/04/16 05:22:05;;;;;;;4.40;3.97;;;;;;;0.82;75.23;97374.03;4974202;28;20224;-65
2021/04/16 05:24:31;;;;;;;4.57;3.77;;;;;;;0.90;75.00;97381.00;4974132;28;20212;-65
2021/04/16 05:26:59;;;;;;;3.97;3.60;;;;;;;0.87;74.81;97383.88;4974411;28;20188;-66
2021/04/16 05:29:25;;;;;;;4.23;3.87;;;;;;;0.99;74.46;97377.53;4973363;28;20188;-64
2021/04/16 05:31:50;;;;;;;4.17;3.77;;;;;;;1.01;74.23;97378.16;4974427;28;20804;-66
2021/04/16 05:34:15;;;;;;;8.10;5.30;;;;;;;0.99;74.69;97378.34;4972878;28;20201;-67
2021/04/16 05:36:41;;;;;;;6.70;4.40;;;;;;;0.92;74.97;97381.66;4938257;28;20212;-66
2021/04/16 05:39:06;;;;;;;4.83;4.33;;;;;;;0.95;75.34;97382.16;4973191;28;20188;-67
2021/04/16 05:41:32;;;;;;;7.03;4.60;;;;;;;0.77;75.61;97378.84;4972975;28;20188;-67
2021/04/16 05:43:57;;;;;;;5.10;3.93;;;;;;;0.81;75.73;97385.31;4974331;28;20181;-65
2021/04/16 05:46:22;;;;;;;5.53;4.53;;;;;;;0.92;74.98;97387.63;4973196;28;20185;-65
2021/04/16 05:48:48;;;;;;;5.27;4.50;;;;;;;0.77;76.12;97384.81;4973834;28;20193;-66
2021/04/16 05:51:13;;;;;;;15.60;5.30;;;;;;;0.60;77.30;97392.56;4955145;28;20204;-66
2021/04/16 05:53:39;;;;;;;5.27;4.77;;;;;;;0.87;76.47;97392.44;4972911;28;20180;-65
2021/04/16 05:56:05;;;;;;;4.57;4.17;;;;;;;0.89;76.25;97390.53;4955429;28;20224;-65
2021/04/16 05:58:31;;;;;;;8.53;4.90;;;;;;;0.79;76.73;97390.59;4966211;28;20189;-65
2021/04/16 06:00:56;;;;;;;7.03;5.20;;;;;;;0.78;76.25;97394.13;4973167;28;20211;-65
2021/04/16 06:03:22;;;;;;;5.20;4.60;;;;;;;0.77;77.10;97400.28;4972465;28;20184;-65
2021/04/16 06:05:47;;;;;;;5.20;4.40;;;;;;;0.76;77.31;97398.66;4956304;28;20191;-65
2021/04/16 06:08:17;;;;;;;7.50;4.90;;;;;;;0.97;75.90;97400.09;4972566;28;20189;-65
2021/04/16 06:10:42;;;;;;;4.97;4.00;;;;;;;0.92;76.66;97399.72;4973217;28;20184;-64
2021/04/16 06:13:08;;;;;;;5.87;4.60;;;;;;;0.98;76.71;97399.13;4972424;28;20296;-63
2021/04/16 06:15:33;;;;;;;5.80;5.00;;;;;;;0.94;77.26;97396.06;4972348;28;20188;-64
2021/04/16 06:17:58;;;;;;;5.00;4.40;;;;;;;0.99;76.96;97400.75;4972708;28;20197;-64
2021/04/16 06:20:26;;;;;;;6.90;4.83;;;;;;;1.15;76.94;97398.25;4972128;28;20594;-64
2021/04/16 06:22:54;;;;;;;4.90;4.40;;;;;;;1.14;77.12;97400.03;4973424;28;20247;-64
2021/04/16 06:25:30;;;;;;;4.90;4.40;;;;;;;1.11;77.78;97407.28;4973262;28;20185;-63
2021/04/16 06:27:56;;;;;;;5.10;4.60;;;;;;;0.97;77.96;97397.50;4972792;28;20239;-63
2021/04/16 06:30:22;;;;;;;5.20;4.70;;;;;;;1.35;77.93;97383.34;4972521;28;20188;-64
2021/04/16 06:33:16;;;;;;;5.83;4.67;;;;;;;1.89;76.19;97390.69;4955011;28;20197;-64
2021/04/16 06:35:49;;;;;;;5.50;4.73;;;;;;;2.16;74.28;97394.78;4971385;28;20638;-64
2021/04/16 06:38:18;;;;;;;5.73;4.73;;;;;;;2.29;73.66;97394.31;4972356;28;20169;-63
2021/04/16 06:40:49;;;;;;;8.63;4.43;;;;;;;2.60;73.87;97387.56;4972825;28;20248;-64
2021/04/16 06:43:15;;;;;;;5.10;4.30;;;;;;;2.75;71.44;97400.66;4971872;28;20272;-64
2021/04/16 06:45:41;;;;;;;7.87;4.80;;;;;;;3.01;71.68;97385.72;4972455;28;20259;-64
2021/04/16 06:48:09;;;;;;;5.90;4.77;;;;;;;3.53;69.43;97383.50;4971819;28;20212;-64
2021/04/16 06:50:40;;;;;;;5.83;4.77;;;;;;;3.42;69.21;97383.88;4972351;28;20195;-64
2021/04/16 06:53:24;;;;;;;7.73;4.73;;;;;;;3.69;68.83;97377.44;4971144;28;20213;-64
2021/04/16 06:55:53;;;;;;;5.10;4.60;;;;;;;3.87;67.88;97388.41;4966467;28;20571;-63
2021/04/16 06:59:03;;;;;;;4.43;4.03;;;;;;;3.41;69.81;97400.38;4954158;28;20532;-64
2021/04/16 07:01:42;;;;;;;4.13;3.73;;;;;;;3.11;70.79;97394.16;4972154;28;20188;-64
2021/04/16 07:04:31;;;;;;;4.77;4.37;;;;;;;3.54;71.00;97390.31;4971732;28;20185;-63
2021/04/16 07:07:02;;;;;;;4.53;4.13;;;;;;;3.70;69.26;97392.03;4966206;28;20177;-64
2021/04/16 07:09:36;;;;;;;4.50;4.10;;;;;;;3.95;68.88;97388.38;4971165;28;20175;-63
2021/04/16 07:12:14;;;;;;;4.83;4.33;;;;;;;3.91;68.87;97394.03;4972254;28;20199;-64
2021/04/16 07:14:46;;;;;;;4.47;4.07;;;;;;;3.30;70.87;97398.97;4972935;28;20172;-63
2021/04/16 07:17:17;;;;;;;4.50;4.10;;;;;;;3.30;70.86;97406.72;4971338;28;20648;-63
2021/04/16 07:19:43;;;;;;;4.47;4.03;;;;;;;3.45;71.09;97393.09;4971980;28;20665;-64
2021/04/16 07:22:19;;;;;;;6.53;4.10;;;;;;;3.24;71.29;97399.63;4971738;28;20228;-64
2021/04/16 07:24:46;;;;;;;4.40;4.00;;;;;;;3.64;70.36;97387.53;4956780;28;20279;-63
2021/04/16 07:27:22;;;;;;;4.83;4.27;;;;;;;3.50;70.40;97407.19;4971720;28;20207;-62
2021/04/16 07:29:58;;;;;;;5.57;4.10;;;;;;;2.82;73.35;97406.81;4972155;28;20544;-63
2021/04/16 07:32:27;;;;;;;4.60;4.10;;;;;;;2.79;74.53;97407.13;4971298;28;20314;-63
2021/04/16 07:34:54;;;;;;;4.83;4.37;;;;;;;2.71;73.88;97407.13;4972276;28;20193;-63
2021/04/16 07:37:42;;;;;;;4.80;4.30;;;;;;;2.82;73.92;97407.63;4953864;28;20211;-63
2021/04/16 07:40:21;;;;;;;6.43;4.47;;;;;;;2.97;72.99;97401.78;4970579;28;20211;-63
2021/04/16 07:42:50;;;;;;;4.90;4.40;;;;;;;3.02;73.42;97400.31;4972277;28;20626;-63
2021/04/16 07:45:35;;;;;;;4.13;3.83;;;;;;;2.48;75.29;97397.41;4971178;28;20563;-62
2021/04/16 07:48:18;;;;;;;5.40;4.90;;;;;;;2.72;74.57;97396.63;4975814;28;20265;-63
2021/04/16 07:50:56;;;;;;;4.80;4.23;;;;;;;2.90;74.45;97399.03;4975393;28;20275;-63
2021/04/16 07:53:37;;;;;;;5.20;4.70;;;;;;;3.18;73.69;97399.47;4943090;28;20239;-63
2021/04/16 07:56:22;;;;;;;4.47;4.07;;;;;;;2.93;73.33;97403.88;4974156;28;20234;-63
2021/04/16 07:59:00;;;;;;;4.93;4.53;;;;;;;3.23;73.42;97405.00;4975823;28;20180;-63
2021/04/16 08:01:26;;;;;;;5.93;4.03;;;;;;;3.18;73.33;97404.66;4974151;28;20180;-63
2021/04/16 08:03:58;;;;;;;5.30;4.17;;;;;;;3.19;72.55;97401.09;4975066;28;20188;-63
2021/04/16 08:06:31;;;;;;;5.00;4.27;;;;;;;3.01;74.33;97400.50;4974533;28;20192;-63
2021/04/16 08:08:57;;;;;;;4.80;4.30;;;;;;;3.11;73.49;97406.28;4975688;28;20296;-63
2021/04/16 08:11:31;;;;;;;6.17;4.53;;;;;;;2.94;74.55;97418.44;4974477;28;20209;-63
2021/04/16 08:14:01;;;;;;;4.67;4.27;;;;;;;2.82;75.01;97414.56;4957581;28;20188;-63
2021/04/16 08:16:41;;;;;;;4.53;4.13;;;;;;;2.63;75.92;97412.28;4974524;28;20188;-63
2021/04/16 08:19:18;;;;;;;4.87;4.37;;;;;;;2.70;76.27;97419.25;4974822;28;20181;-63
2021/04/16 08:21:49;;;;;;;4.67;4.27;;;;;;;2.79;75.48;97420.88;4974869;28;20182;-63
2021/04/16 08:24:29;;;;;;;5.00;4.13;;;;;;;2.79;76.07;97427.81;4966139;28;20191;-63
2021/04/16 08:27:04;;;;;;;7.30;4.50;;;;;;;3.27;73.41;97421.81;4957368;28;20552;-63
2021/04/16 08:29:35;;;;;;;4.50;4.10;;;;;;;3.26;74.15;97430.53;4973334;28;20184;-63
2021/04/16 08:32:22;;;;;;;4.50;4.10;;;;;;;3.32;74.87;97429.88;4957461;28;20204;-63
2021/04/16 08:35:05;;;;;;;5.13;4.63;;;;;;;3.72;71.80;97421.19;4974711;28;20205;-63
2021/04/16 08:37:42;;;;;;;4.60;4.13;;;;;;;3.68;72.14;97425.88;4973968;28;20181;-62
2021/04/16 08:40:13;;;;;;;4.63;4.23;;;;;;;3.80;71.79;97426.34;4956982;28;20188;-63
2021/04/16 08:42:39;;;;;;;4.97;4.27;;;;;;;3.68;71.69;97420.72;4974050;28;20184;-63
2021/04/16 08:45:13;;;;;;;5.10;4.70;;;;;;;3.26;73.69;97427.97;4956939;28;20275;-63
2021/04/16 08:47:46;;;;;;;6.17;4.77;;;;;;;3.46;73.06;97418.03;4957652;28;20180;-63
2021/04/16 08:50:12;;;;;;;4.93;4.40;;;;;;;3.29;73.09;97425.84;4973658;28;20254;-63
2021/04/16 08:52:51;;;;;;;5.43;4.77;;;;;;;3.57;72.67;97417.66;4973469;28;20212;-63
2021/04/16 08:55:41;;;;;;;4.93;4.53;;;;;;;3.30;73.68;97418.88;4973715;28;20234;-63
2021/04/16 08:58:30;;;;;;;5.07;4.67;;;;;;;3.32;73.01;97416.94;4973989;28;20308;-63
2021/04/16 09:00:57;;;;;;;5.80;4.57;;;;;;;3.47;73.02;97420.44;4973879;28;20676;-63
2021/04/16 09:03:38;;;;;;;4.57;4.17;;;;;;;3.64;72.45;97414.25;4940122;28;20189;-63
2021/04/16 09:06:04;;;;;;;4.93;4.53;;;;;;;3.96;70.92;97423.66;4974312;28;20185;-63
2021/04/16 09:08:45;;;;;;;4.50;4.10;;;;;;;3.93;71.15;97421.44;4973223;28;20192;-63
2021/04/16 09:11:13;;;;;;;5.03;4.57;;;;;;;4.05;70.25;97420.09;4973321;28;20188;-64
2021/04/16 09:13:39;;;;;;;6.03;4.50;;;;;;;4.05;71.04;97421.88;4956914;28;20291;-63
2021/04/16 09:16:16;;;;;;;4.60;4.20;;;;;;;4.19;69.59;97418.53;4974042;28;20283;-64
2021/04/16 09:18:53;;;;;;;5.60;5.00;;;;;;;4.10;70.68;97422.97;4974197;28;20192;-64
2021/04/16 09:21:23;;;;;;;5.03;4.57;;;;;;;3.87;71.16;97421.28;4972744;28;20272;-63
2021/04/16 09:23:48;;;;;;;5.10;4.70;;;;;;;3.86;71.03;97412.69;4974331;28;20188;-63
2021/04/16 09:26:48;;;;;;;5.37;4.40;;;;;;;3.96;70.08;97428.03;4956089;28;20564;-63
2021/04/16 09:29:25;;;;;;;4.47;4.07;;;;;;;3.73;70.06;97423.59;4972136;28;20177;-63
2021/04/16 09:31:54;;;;;;;6.43;4.33;;;;;;;3.92;70.50;97411.22;4973484;28;20631;-63
2021/04/16 09:34:22;;;;;;;4.93;4.53;;;;;;;3.96;70.01;97415.09;4955609;28;20189;-63
2021/04/16 09:36:51;;;;;;;4.80;4.40;;;;;;;4.47;68.16;97418.84;4956213;28;20197;-63
2021/04/16 09:39:37;;;;;;;4.53;4.13;;;;;;;4.44;67.28;97417.44;4955458;28;20655;-64
2021/04/16 09:42:27;;;;;;;4.47;4.07;;;;;;;3.95;69.02;97414.31;4960830;28;20184;-64
2021/04/16 09:44:57;;;;;;;4.90;4.30;;;;;;;4.15;68.13;97414.66;4973554;28;20185;-63
2021/04/16 09:47:40;;;;;;;4.47;4.07;;;;;;;4.42;67.15;97413.38;4973013;28;20224;-63
2021/04/16 09:50:20;;;;;;;5.97;3.90;;;;;;;4.94;65.16;97405.69;4959570;28;20180;-63
2021/04/16 09:52:49;;;;;;;4.37;3.97;;;;;;;4.99;63.90;97408.56;4955397;28;20196;-63
2021/04/16 09:55:39;;;;;;;4.77;4.20;;;;;;;4.83;64.18;97412.09;4972701;28;20228;-63
2021/04/16 09:58:05;;;;;;;4.27;3.73;;;;;;;4.25;65.37;97409.25;4973616;28;20216;-63
2021/04/16 10:00:38;;;;;;;4.80;4.40;;;;;;;4.45;65.07;97411.25;4972424;28;20768;-63
2021/04/16 10:03:23;;;;;;;4.60;4.20;;;;;;;4.37;65.17;97418.28;4955563;28;20291;-63
2021/04/16 10:05:49;;;;;;;4.93;4.53;;;;;;;4.03;66.63;97409.06;4936859;29;20526;-63
2021/04/16 10:08:24;;;;;;;4.60;4.20;;;;;;;4.70;64.81;97403.28;4953070;28;20181;-63
2021/04/16 10:10:50;;;;;;;4.50;4.10;;;;;;;4.97;61.73;97397.53;4957816;28;20199;-63
2021/04/16 10:13:25;;;;;;;4.53;3.77;;;;;;;5.59;60.05;97397.22;4971872;28;20231;-63
2021/04/16 10:15:56;;;;;;;4.40;4.10;;;;;;;5.43;60.38;97391.22;4965992;28;20275;-64
2021/04/16 10:18:37;;;;;;;5.03;4.63;;;;;;;5.47;60.48;97390.84;4955025;28;20180;-63
2021/04/16 10:21:20;;;;;;;4.80;4.27;;;;;;;5.70;59.17;97391.56;4955892;28;20184;-63
2021/04/16 10:23:51;;;;;;;4.00;3.70;;;;;;;5.60;58.62;97388.44;4955327;28;20239;-63
2021/04/16 10:27:51;;;;;;;4.80;4.00;;;;;;;5.48;59.76;97389.88;4954935;28;20280;-63
2021/04/16 12:38:39;;;;;;;4.67;4.27;;;;;;;4.69;63.01;97383.47;4974019;28;20235;-63
2021/04/16 12:41:16;;;;;;;4.90;4.50;;;;;;;4.75;63.28;97373.22;4957417;28;20556;-64
2021/04/16 12:43:44;;;;;;;4.33;4.03;;;;;;;4.71;62.12;97379.75;4941895;28;20187;-65
2021/04/16 12:46:13;;;;;;;4.60;4.20;;;;;;;5.00;61.85;97372.03;4974544;28;20262;-63
2021/04/16 12:48:39;;;;;;;4.90;4.40;;;;;;;5.08;61.70;97367.72;4974549;28;20219;-63
2021/04/16 12:51:04;;;;;;;4.70;4.30;;;;;;;5.11;61.02;97383.78;4974620;28;20275;-63
2021/04/16 12:53:29;;;;;;;4.70;4.30;;;;;;;5.09;61.01;97367.53;4973010;28;20264;-63
2021/04/16 12:55:55;;;;;;;4.50;4.20;;;;;;;5.00;62.27;97359.03;4956643;28;20635;-64
2021/04/16 12:58:33;;;;;;;4.87;4.47;;;;;;;5.19;61.42;97367.28;4973725;28;20212;-63
2021/04/16 13:01:01;;;;;;;4.97;4.50;;;;;;;5.31;60.94;97368.44;4974365;28;20189;-64
2021/04/16 13:03:37;;;;;;;4.77;4.37;;;;;;;5.43;60.90;97362.63;4956005;28;20185;-64
2021/04/16 13:06:05;;;;;;;4.47;4.03;;;;;;;5.78;60.31;97368.09;4974659;28;20255;-65
2021/04/16 13:08:31;;;;;;;4.70;4.30;;;;;;;5.54;60.15;97363.97;4973171;28;20657;-63
2021/04/16 13:10:56;;;;;;;4.60;4.30;;;;;;;5.54;59.55;97360.56;4973577;28;20264;-63
2021/04/16 13:13:22;;;;;;;4.43;4.10;;;;;;;5.66;59.66;97365.13;4956177;28;20200;-64
2021/04/16 13:15:48;;;;;;;4.60;4.30;;;;;;;5.36;59.97;97360.91;4973959;28;20181;-64
2021/04/16 13:18:32;;;;;;;4.57;4.27;;;;;;;5.58;60.30;97360.03;4973559;28;20212;-64
2021/04/16 13:20:59;;;;;;;4.93;4.53;;;;;;;5.25;61.09;97356.16;4956724;28;20196;-64
2021/04/16 13:23:24;;;;;;;5.10;4.60;;;;;;;5.52;61.22;97362.56;4973019;28;20192;-64
2021/04/16 13:25:50;;;;;;;5.27;4.77;;;;;;;5.29;61.17;97357.44;4956516;28;20247;-64
2021/04/16 13:28:15;;;;;;;5.40;4.90;;;;;;;5.57;60.86;97357.63;4972949;28;20187;-64
2021/04/16 13:30:41;;;;;;;4.50;4.10;;;;;;;5.89;59.80;97354.63;4972775;28;20204;-64
2021/04/16 13:33:16;;;;;;;4.93;4.53;;;;;;;6.17;58.58;97347.75;4974497;28;20208;-64
2021/04/16 13:35:48;;;;;;;6.10;4.60;;;;;;;6.21;58.53;97341.16;4956558;28;20181;-64
2021/04/16 13:38:18;;;;;;;5.20;4.80;;;;;;;6.08;58.13;97341.03;4973451;28;20185;-64
2021/04/16 13:40:44;;;;;;;5.17;4.77;;;;;;;6.25;57.21;97337.19;4955686;28;20192;-64
2021/04/16 13:43:10;;;;;;;8.07;7.37;;;;;;;6.19;58.17;97326.72;4955789;28;20678;-64
2021/04/16 13:45:36;;;;;;;5.50;5.00;;;;;;;6.67;56.58;97333.78;4971939;28;20216;-64
2021/04/16 13:48:04;;;;;;;4.70;4.40;;;;;;;7.01;55.14;97319.19;4973839;28;20592;-64
2021/04/16 13:50:30;;;;;;;4.27;3.97;;;;;;;7.09;54.60;97319.84;4955132;28;20189;-64
2021/04/16 13:52:55;;;;;;;4.70;4.40;;;;;;;6.62;55.40;97328.34;4972813;28;20295;-64
2021/04/16 13:55:22;;;;;;;4.27;3.97;;;;;;;6.43;55.87;97326.34;4972515;28;20303;-64
2021/04/16 13:57:48;;;;;;;4.30;4.00;;;;;;;6.26;56.43;97323.19;4956085;28;20611;-64
2021/04/16 14:00:20;;;;;;;4.80;4.40;;;;;;;6.20;55.86;97325.72;4972761;28;20275;-64
2021/04/16 14:02:49;;;;;;;4.53;4.13;;;;;;;6.23;56.25;97315.78;4955911;28;20185;-64
2021/04/16 14:05:23;;;;;;;4.40;4.10;;;;;;;6.36;55.00;97311.66;4972619;28;20189;-64